sensor_id;sensor_type;location;lat;lon;timestamp;temperature;humidity
69031;DHT22;56083;48.774;8.942;2023-03-29T00:00:19;4.40;99.90
69031;DHT22;56083;48.774;8.942;2023-03-29T00:02:45;4.40;99.90
69031;DHT22;56083;48.774;8.942;2023-03-29T00:05:17;4.40;99.90
69031;DHT22;56083;48.774;8.942;2023-03-29T00:07:43;4.40;99.90
69031;DHT22;56083;48.774;8.942;2023-03-29T00:10:11;4.40;99.90
69031;DHT22;56083;48.774;8.942;2023-03-29T00:12:38;4.40;99.90
69031;DHT22;56083;48.774;8.942;2023-03-29T00:15:06;4.40;99.90
69031;DHT22;56083;48.774;8.942;2023-03-29T00:17:32;4.40;99.90
69031;DHT22;56083;48.774;8.942;2023-03-29T00:19:58;4.40;99.90
69031;DHT22;56083;48.774;8.942;2023-03-29T00:22:24;4.40;99.90
69031;DHT22;56083;48.774;8.942;2023-03-29T00:24:53;4.40;99.90
69031;DHT22;56083;48.774;8.942;2023-03-29T00:27:20;4.40;99.90
69031;DHT22;56083;48.774;8.942;2023-03-29T00:29:46;4.40;99.90
69031;DHT22;56083;48.774;8.942;2023-03-29T00:32:12;4.30;99.90
69031;DHT22;56083;48.774;8.942;2023-03-29T00:34:38;4.40;99.90
69031;DHT22;56083;48.774;8.942;2023-03-29T00:37:07;4.40;99.90
69031;DHT22;56083;48.774;8.942;2023-03-29T00:39:34;4.30;99.90
69031;DHT22;56083;48.774;8.942;2023-03-29T00:42:00;4.40;99.90
69031;DHT22;56083;48.774;8.942;2023-03-29T00:44:55;4.30;99.90
69031;DHT22;56083;48.774;8.942;2023-03-29T00:48:07;4.30;99.90
69031;DHT22;56083;48.774;8.942;2023-03-29T00:50:23;4.30;99.90
69031;DHT22;56083;48.774;8.942;2023-03-29T00:52:56;4.30;99.90
69031;DHT22;56083;48.774;8.942;2023-03-29T00:55:26;4.30;99.90
69031;DHT22;56083;48.774;8.942;2023-03-29T00:57:55;4.30;99.90
69031;DHT22;56083;48.774;8.942;2023-03-29T01:00:33;4.30;99.90
69031;DHT22;56083;48.774;8.942;2023-03-29T01:03:01;4.30;99.90
69031;DHT22;56083;48.774;8.942;2023-03-29T01:05:37;4.30;99.90
69031;DHT22;56083;48.774;8.942;2023-03-29T01:08:08;4.30;99.90
69031;DHT22;56083;48.774;8.942;2023-03-29T01:10:46;4.30;99.90
69031;DHT22;56083;48.774;8.942;2023-03-29T01:13:37;4.30;99.90
69031;DHT22;56083;48.774;8.942;2023-03-29T01:16:05;4.30;99.90
69031;DHT22;56083;48.774;8.942;2023-03-29T01:18:31;4.40;99.90
69031;DHT22;56083;48.774;8.942;2023-03-29T01:21:14;4.30;99.90
69031;DHT22;56083;48.774;8.942;2023-03-29T01:26:34;4.30;99.90
69031;DHT22;56083;48.774;8.942;2023-03-29T01:31:53;4.40;99.90
69031;DHT22;56083;48.774;8.942;2023-03-29T01:34:27;4.40;99.90
69031;DHT22;56083;48.774;8.942;2023-03-29T01:37:13;4.30;99.90
69031;DHT22;56083;48.774;8.942;2023-03-29T01:39:42;4.30;99.90
69031;DHT22;56083;48.774;8.942;2023-03-29T01:44:45;4.40;99.90
69031;DHT22;56083;48.774;8.942;2023-03-29T01:50:01;4.40;99.90
69031;DHT22;56083;48.774;8.942;2023-03-29T01:52:37;4.40;99.90
69031;DHT22;56083;48.774;8.942;2023-03-29T01:55:22;4.50;99.90
69031;DHT22;56083;48.774;8.942;2023-03-29T01:57:50;4.40;99.90
69031;DHT22;56083;48.774;8.942;2023-03-29T02:00:20;4.50;99.90
69031;DHT22;56083;48.774;8.942;2023-03-29T02:02:50;4.50;99.90
69031;DHT22;56083;48.774;8.942;2023-03-29T02:05:18;4.50;99.90
69031;DHT22;56083;48.774;8.942;2023-03-29T02:07:47;4.50;99.90
69031;DHT22;56083;48.774;8.942;2023-03-29T02:10:15;4.50;99.90
69031;DHT22;56083;48.774;8.942;2023-03-29T02:12:41;4.50;99.90
69031;DHT22;56083;48.774;8.942;2023-03-29T02:15:16;4.50;99.90
69031;DHT22;56083;48.774;8.942;2023-03-29T02:17:43;4.50;99.90
69031;DHT22;56083;48.774;8.942;2023-03-29T02:20:30;4.50;99.90
69031;DHT22;56083;48.774;8.942;2023-03-29T02:23:04;4.50;99.90
69031;DHT22;56083;48.774;8.942;2023-03-29T02:25:33;4.50;99.90
69031;DHT22;56083;48.774;8.942;2023-03-29T02:28:00;4.60;99.90
69031;DHT22;56083;48.774;8.942;2023-03-29T02:30:50;4.70;99.90
69031;DHT22;56083;48.774;8.942;2023-03-29T02:33:33;4.70;99.90
69031;DHT22;56083;48.774;8.942;2023-03-29T02:36:06;4.60;99.90
69031;DHT22;56083;48.774;8.942;2023-03-29T02:38:35;4.60;99.90
69031;DHT22;56083;48.774;8.942;2023-03-29T02:41:03;4.50;99.90
69031;DHT22;56083;48.774;8.942;2023-03-29T02:43:31;4.50;99.90
69031;DHT22;56083;48.774;8.942;2023-03-29T02:45:58;4.40;99.90
69031;DHT22;56083;48.774;8.942;2023-03-29T02:48:25;4.50;99.90
69031;DHT22;56083;48.774;8.942;2023-03-29T02:50:55;4.50;99.90
69031;DHT22;56083;48.774;8.942;2023-03-29T02:53:29;4.40;99.90
69031;DHT22;56083;48.774;8.942;2023-03-29T02:55:56;4.30;99.90
69031;DHT22;56083;48.774;8.942;2023-03-29T02:58:22;4.20;99.90
69031;DHT22;56083;48.774;8.942;2023-03-29T03:00:51;4.10;99.90
69031;DHT22;56083;48.774;8.942;2023-03-29T03:03:16;3.90;99.90
69031;DHT22;56083;48.774;8.942;2023-03-29T03:05:42;3.80;99.90
69031;DHT22;56083;48.774;8.942;2023-03-29T03:08:08;3.70;99.90
69031;DHT22;56083;48.774;8.942;2023-03-29T03:10:34;3.80;99.90
69031;DHT22;56083;48.774;8.942;2023-03-29T03:13:00;3.80;99.90
69031;DHT22;56083;48.774;8.942;2023-03-29T03:15:26;3.80;99.90
69031;DHT22;56083;48.774;8.942;2023-03-29T03:17:52;4.00;99.90
69031;DHT22;56083;48.774;8.942;2023-03-29T03:20:19;4.10;99.90
69031;DHT22;56083;48.774;8.942;2023-03-29T03:22:47;4.40;99.90
69031;DHT22;56083;48.774;8.942;2023-03-29T03:25:18;4.60;99.90
69031;DHT22;56083;48.774;8.942;2023-03-29T03:27:47;4.80;99.90
69031;DHT22;56083;48.774;8.942;2023-03-29T03:30:13;5.00;99.90
69031;DHT22;56083;48.774;8.942;2023-03-29T03:32:40;5.10;99.90
69031;DHT22;56083;48.774;8.942;2023-03-29T03:35:08;5.20;99.90
69031;DHT22;56083;48.774;8.942;2023-03-29T03:37:36;5.20;99.90
69031;DHT22;56083;48.774;8.942;2023-03-29T03:40:03;5.20;99.90
69031;DHT22;56083;48.774;8.942;2023-03-29T03:42:30;5.20;99.90
69031;DHT22;56083;48.774;8.942;2023-03-29T03:44:55;5.20;99.90
69031;DHT22;56083;48.774;8.942;2023-03-29T03:47:21;5.30;99.90
69031;DHT22;56083;48.774;8.942;2023-03-29T03:49:47;5.30;99.90
69031;DHT22;56083;48.774;8.942;2023-03-29T03:52:13;5.50;99.90
69031;DHT22;56083;48.774;8.942;2023-03-29T03:54:38;5.70;99.90
69031;DHT22;56083;48.774;8.942;2023-03-29T03:57:04;5.80;99.90
69031;DHT22;56083;48.774;8.942;2023-03-29T03:59:30;6.00;99.90
69031;DHT22;56083;48.774;8.942;2023-03-29T04:01:56;6.10;99.90
69031;DHT22;56083;48.774;8.942;2023-03-29T04:04:22;6.20;99.90
69031;DHT22;56083;48.774;8.942;2023-03-29T04:06:49;6.30;99.90
69031;DHT22;56083;48.774;8.942;2023-03-29T04:09:14;6.40;99.90
69031;DHT22;56083;48.774;8.942;2023-03-29T04:11:40;6.40;99.90
69031;DHT22;56083;48.774;8.942;2023-03-29T04:14:06;6.40;99.90
69031;DHT22;56083;48.774;8.942;2023-03-29T04:16:31;6.40;99.90
69031;DHT22;56083;48.774;8.942;2023-03-29T04:18:57;6.40;99.90
69031;DHT22;56083;48.774;8.942;2023-03-29T04:21:23;6.40;99.90
69031;DHT22;56083;48.774;8.942;2023-03-29T04:23:48;6.30;99.90
69031;DHT22;56083;48.774;8.942;2023-03-29T04:26:14;6.20;99.90
69031;DHT22;56083;48.774;8.942;2023-03-29T04:28:41;6.20;99.90
69031;DHT22;56083;48.774;8.942;2023-03-29T04:31:10;6.10;99.90
69031;DHT22;56083;48.774;8.942;2023-03-29T04:33:36;6.00;99.90
69031;DHT22;56083;48.774;8.942;2023-03-29T04:36:03;6.00;99.90
69031;DHT22;56083;48.774;8.942;2023-03-29T04:38:30;5.90;99.90
69031;DHT22;56083;48.774;8.942;2023-03-29T04:40:55;5.90;99.90
69031;DHT22;56083;48.774;8.942;2023-03-29T04:43:21;6.00;99.90
69031;DHT22;56083;48.774;8.942;2023-03-29T04:45:48;6.00;99.90
69031;DHT22;56083;48.774;8.942;2023-03-29T04:48:14;6.00;99.90
69031;DHT22;56083;48.774;8.942;2023-03-29T04:50:40;6.10;99.90
69031;DHT22;56083;48.774;8.942;2023-03-29T04:53:10;6.10;99.90
69031;DHT22;56083;48.774;8.942;2023-03-29T04:55:35;6.10;99.90
69031;DHT22;56083;48.774;8.942;2023-03-29T04:58:01;6.10;99.90
69031;DHT22;56083;48.774;8.942;2023-03-29T05:00:27;6.10;99.90
69031;DHT22;56083;48.774;8.942;2023-03-29T05:02:53;6.00;99.90
69031;DHT22;56083;48.774;8.942;2023-03-29T05:05:19;6.00;99.90
69031;DHT22;56083;48.774;8.942;2023-03-29T05:07:45;6.00;99.90
69031;DHT22;56083;48.774;8.942;2023-03-29T05:10:11;6.00;99.90
69031;DHT22;56083;48.774;8.942;2023-03-29T05:12:36;6.00;99.90
69031;DHT22;56083;48.774;8.942;2023-03-29T05:15:03;6.00;99.90
69031;DHT22;56083;48.774;8.942;2023-03-29T05:17:29;6.00;99.90
69031;DHT22;56083;48.774;8.942;2023-03-29T05:19:56;6.10;99.90
69031;DHT22;56083;48.774;8.942;2023-03-29T05:22:22;6.10;99.90
69031;DHT22;56083;48.774;8.942;2023-03-29T05:24:48;6.10;99.90
69031;DHT22;56083;48.774;8.942;2023-03-29T05:27:16;6.10;99.90
69031;DHT22;56083;48.774;8.942;2023-03-29T05:29:42;6.20;99.90
69031;DHT22;56083;48.774;8.942;2023-03-29T05:32:09;6.20;99.90
69031;DHT22;56083;48.774;8.942;2023-03-29T05:34:35;6.20;99.90
69031;DHT22;56083;48.774;8.942;2023-03-29T05:37:01;6.30;99.90
69031;DHT22;56083;48.774;8.942;2023-03-29T05:39:27;6.20;99.90
69031;DHT22;56083;48.774;8.942;2023-03-29T05:41:53;6.20;99.90
69031;DHT22;56083;48.774;8.942;2023-03-29T05:44:19;6.30;99.90
69031;DHT22;56083;48.774;8.942;2023-03-29T05:46:45;6.30;99.90
69031;DHT22;56083;48.774;8.942;2023-03-29T05:49:11;6.40;99.90
69031;DHT22;56083;48.774;8.942;2023-03-29T05:51:36;6.40;99.90
69031;DHT22;56083;48.774;8.942;2023-03-29T05:54:02;6.40;99.90
69031;DHT22;56083;48.774;8.942;2023-03-29T05:56:28;6.50;99.90
69031;DHT22;56083;48.774;8.942;2023-03-29T05:58:54;6.60;99.90
69031;DHT22;56083;48.774;8.942;2023-03-29T06:01:23;6.60;99.90
69031;DHT22;56083;48.774;8.942;2023-03-29T06:03:52;6.70;99.90
69031;DHT22;56083;48.774;8.942;2023-03-29T06:06:17;6.70;99.90
69031;DHT22;56083;48.774;8.942;2023-03-29T06:08:44;6.80;99.90
69031;DHT22;56083;48.774;8.942;2023-03-29T06:11:11;6.90;99.90
69031;DHT22;56083;48.774;8.942;2023-03-29T06:13:37;7.00;99.90
69031;DHT22;56083;48.774;8.942;2023-03-29T06:16:06;7.10;99.90
69031;DHT22;56083;48.774;8.942;2023-03-29T06:18:33;7.30;99.90
69031;DHT22;56083;48.774;8.942;2023-03-29T06:20:59;7.40;99.90
69031;DHT22;56083;48.774;8.942;2023-03-29T06:23:26;7.60;99.90
69031;DHT22;56083;48.774;8.942;2023-03-29T06:25:52;7.70;99.90
69031;DHT22;56083;48.774;8.942;2023-03-29T06:28:19;7.80;99.90
69031;DHT22;56083;48.774;8.942;2023-03-29T06:30:45;7.90;99.90
69031;DHT22;56083;48.774;8.942;2023-03-29T06:33:12;8.00;99.90
69031;DHT22;56083;48.774;8.942;2023-03-29T06:35:41;8.20;99.90
69031;DHT22;56083;48.774;8.942;2023-03-29T06:38:08;8.20;99.90
69031;DHT22;56083;48.774;8.942;2023-03-29T06:40:34;8.30;99.90
69031;DHT22;56083;48.774;8.942;2023-03-29T06:43:02;8.50;99.90
69031;DHT22;56083;48.774;8.942;2023-03-29T06:45:30;8.70;99.90
69031;DHT22;56083;48.774;8.942;2023-03-29T06:47:56;8.90;99.90
69031;DHT22;56083;48.774;8.942;2023-03-29T06:50:22;9.00;99.90
69031;DHT22;56083;48.774;8.942;2023-03-29T06:52:48;9.10;99.90
69031;DHT22;56083;48.774;8.942;2023-03-29T06:55:15;9.20;99.90
69031;DHT22;56083;48.774;8.942;2023-03-29T06:57:41;9.10;99.90
69031;DHT22;56083;48.774;8.942;2023-03-29T07:00:08;9.10;99.90
69031;DHT22;56083;48.774;8.942;2023-03-29T07:02:44;9.10;99.90
69031;DHT22;56083;48.774;8.942;2023-03-29T07:05:11;9.10;99.90
69031;DHT22;56083;48.774;8.942;2023-03-29T07:07:39;9.20;99.90
69031;DHT22;56083;48.774;8.942;2023-03-29T07:10:25;9.30;99.90
69031;DHT22;56083;48.774;8.942;2023-03-29T07:12:53;9.40;99.90
69031;DHT22;56083;48.774;8.942;2023-03-29T07:15:19;9.60;99.90
69031;DHT22;56083;48.774;8.942;2023-03-29T07:17:46;9.70;99.90
69031;DHT22;56083;48.774;8.942;2023-03-29T07:20:12;9.90;99.90
69031;DHT22;56083;48.774;8.942;2023-03-29T07:22:42;10.20;99.90
69031;DHT22;56083;48.774;8.942;2023-03-29T07:25:09;10.50;99.90
69031;DHT22;56083;48.774;8.942;2023-03-29T07:27:37;10.60;99.90
69031;DHT22;56083;48.774;8.942;2023-03-29T07:30:04;10.70;99.90
69031;DHT22;56083;48.774;8.942;2023-03-29T07:32:36;10.70;99.90
69031;DHT22;56083;48.774;8.942;2023-03-29T07:35:02;10.70;99.90
69031;DHT22;56083;48.774;8.942;2023-03-29T07:37:30;10.70;99.90
69031;DHT22;56083;48.774;8.942;2023-03-29T07:39:56;10.80;99.90
69031;DHT22;56083;48.774;8.942;2023-03-29T07:42:22;10.80;99.90
69031;DHT22;56083;48.774;8.942;2023-03-29T07:44:48;10.70;99.90
69031;DHT22;56083;48.774;8.942;2023-03-29T07:47:13;10.60;99.90
69031;DHT22;56083;48.774;8.942;2023-03-29T07:49:40;10.60;99.90
69031;DHT22;56083;48.774;8.942;2023-03-29T07:52:07;10.70;99.90
69031;DHT22;56083;48.774;8.942;2023-03-29T07:54:33;10.80;99.90
69031;DHT22;56083;48.774;8.942;2023-03-29T07:56:59;10.90;99.90
69031;DHT22;56083;48.774;8.942;2023-03-29T07:59:25;11.00;99.90
69031;DHT22;56083;48.774;8.942;2023-03-29T08:01:52;11.00;99.90
69031;DHT22;56083;48.774;8.942;2023-03-29T08:04:17;10.90;99.90
69031;DHT22;56083;48.774;8.942;2023-03-29T08:06:43;10.80;99.90
69031;DHT22;56083;48.774;8.942;2023-03-29T08:09:08;11.00;99.90
69031;DHT22;56083;48.774;8.942;2023-03-29T08:11:34;11.10;99.90
69031;DHT22;56083;48.774;8.942;2023-03-29T08:14:00;11.00;99.90
69031;DHT22;56083;48.774;8.942;2023-03-29T08:16:25;11.00;99.90
69031;DHT22;56083;48.774;8.942;2023-03-29T08:18:51;11.00;99.90
69031;DHT22;56083;48.774;8.942;2023-03-29T08:21:16;10.80;99.90
69031;DHT22;56083;48.774;8.942;2023-03-29T08:23:42;10.80;99.90
69031;DHT22;56083;48.774;8.942;2023-03-29T08:26:08;10.80;99.90
69031;DHT22;56083;48.774;8.942;2023-03-29T08:28:34;10.80;99.90
69031;DHT22;56083;48.774;8.942;2023-03-29T08:30:59;10.90;99.90
69031;DHT22;56083;48.774;8.942;2023-03-29T08:33:25;11.00;99.90
69031;DHT22;56083;48.774;8.942;2023-03-29T08:35:51;11.10;99.90
69031;DHT22;56083;48.774;8.942;2023-03-29T08:38:17;11.10;99.90
69031;DHT22;56083;48.774;8.942;2023-03-29T08:40:47;11.20;99.90
69031;DHT22;56083;48.774;8.942;2023-03-29T08:46:35;11.40;99.90
69031;DHT22;56083;48.774;8.942;2023-03-29T08:49:05;11.50;99.90
69031;DHT22;56083;48.774;8.942;2023-03-29T08:51:35;11.50;99.90
69031;DHT22;56083;48.774;8.942;2023-03-29T08:54:23;11.70;99.90
69031;DHT22;56083;48.774;8.942;2023-03-29T08:56:53;11.70;99.90
69031;DHT22;56083;48.774;8.942;2023-03-29T08:59:26;11.70;99.90
69031;DHT22;56083;48.774;8.942;2023-03-29T09:01:55;11.80;99.90
69031;DHT22;56083;48.774;8.942;2023-03-29T09:04:27;11.80;99.90
69031;DHT22;56083;48.774;8.942;2023-03-29T09:06:54;11.90;99.90
69031;DHT22;56083;48.774;8.942;2023-03-29T09:09:22;12.20;99.90
69031;DHT22;56083;48.774;8.942;2023-03-29T09:12:09;12.60;99.90
69031;DHT22;56083;48.774;8.942;2023-03-29T09:14:47;12.70;99.90
69031;DHT22;56083;48.774;8.942;2023-03-29T09:23:01;13.10;99.90
69031;DHT22;56083;48.774;8.942;2023-03-29T09:26:03;13.10;99.90
69031;DHT22;56083;48.774;8.942;2023-03-29T09:34:00;14.50;99.90
69031;DHT22;56083;48.774;8.942;2023-03-29T09:36:53;14.60;99.90
69031;DHT22;56083;48.774;8.942;2023-03-29T09:39:19;14.70;99.90
69031;DHT22;56083;48.774;8.942;2023-03-29T09:44:23;14.70;99.90
69031;DHT22;56083;48.774;8.942;2023-03-29T09:47:05;15.20;99.90
69031;DHT22;56083;48.774;8.942;2023-03-29T09:49:37;15.70;99.90
69031;DHT22;56083;48.774;8.942;2023-03-29T09:52:07;15.50;99.90
69031;DHT22;56083;48.774;8.942;2023-03-29T09:54:35;15.70;99.90
69031;DHT22;56083;48.774;8.942;2023-03-29T09:57:01;15.80;99.90
69031;DHT22;56083;48.774;8.942;2023-03-29T09:59:27;15.90;99.90
69031;DHT22;56083;48.774;8.942;2023-03-29T10:02:05;15.90;99.90
69031;DHT22;56083;48.774;8.942;2023-03-29T10:04:31;15.70;99.90
69031;DHT22;56083;48.774;8.942;2023-03-29T10:06:57;15.70;99.90
69031;DHT22;56083;48.774;8.942;2023-03-29T10:09:24;15.70;99.90
69031;DHT22;56083;48.774;8.942;2023-03-29T10:11:55;15.80;99.90
69031;DHT22;56083;48.774;8.942;2023-03-29T10:14:32;15.70;99.90
69031;DHT22;56083;48.774;8.942;2023-03-29T10:16:58;15.30;99.90
69031;DHT22;56083;48.774;8.942;2023-03-29T10:19:29;15.60;99.90
69031;DHT22;56083;48.774;8.942;2023-03-29T10:21:58;16.40;99.90
69031;DHT22;56083;48.774;8.942;2023-03-29T10:24:26;17.60;99.90
69031;DHT22;56083;48.774;8.942;2023-03-29T10:27:00;18.80;99.90
69031;DHT22;56083;48.774;8.942;2023-03-29T10:29:26;19.60;99.90
69031;DHT22;56083;48.774;8.942;2023-03-29T10:31:52;20.50;98.60
69031;DHT22;56083;48.774;8.942;2023-03-29T10:34:19;21.50;94.50
69031;DHT22;56083;48.774;8.942;2023-03-29T10:36:56;21.60;93.40
69031;DHT22;56083;48.774;8.942;2023-03-29T10:39:28;21.70;92.20
69031;DHT22;56083;48.774;8.942;2023-03-29T10:41:54;22.50;90.70
69031;DHT22;56083;48.774;8.942;2023-03-29T10:44:29;23.90;84.00
69031;DHT22;56083;48.774;8.942;2023-03-29T10:46:55;24.80;77.20
69031;DHT22;56083;48.774;8.942;2023-03-29T10:49:22;25.20;72.30
69031;DHT22;56083;48.774;8.942;2023-03-29T10:51:48;26.20;68.90
69031;DHT22;56083;48.774;8.942;2023-03-29T10:54:18;25.90;66.50
69031;DHT22;56083;48.774;8.942;2023-03-29T10:56:56;24.80;68.20
69031;DHT22;56083;48.774;8.942;2023-03-29T11:04:44;23.60;67.20
69031;DHT22;56083;48.774;8.942;2023-03-29T11:13:06;25.70;61.50
69031;DHT22;56083;48.774;8.942;2023-03-29T11:15:42;25.20;63.20
69031;DHT22;56083;48.774;8.942;2023-03-29T11:29:54;23.20;68.60
69031;DHT22;56083;48.774;8.942;2023-03-29T11:40:41;19.80;74.40
69031;DHT22;56083;48.774;8.942;2023-03-29T11:43:25;19.70;72.70
69031;DHT22;56083;48.774;8.942;2023-03-29T11:46:00;19.60;71.60
69031;DHT22;56083;48.774;8.942;2023-03-29T11:48:44;19.20;73.00
69031;DHT22;56083;48.774;8.942;2023-03-29T11:51:22;18.20;74.30
69031;DHT22;56083;48.774;8.942;2023-03-29T11:54:16;17.60;77.00
69031;DHT22;56083;48.774;8.942;2023-03-29T11:56:50;17.50;79.40
69031;DHT22;56083;48.774;8.942;2023-03-29T11:59:34;17.30;79.60
69031;DHT22;56083;48.774;8.942;2023-03-29T12:02:18;16.80;79.40
69031;DHT22;56083;48.774;8.942;2023-03-29T12:04:51;16.30;82.10
69031;DHT22;56083;48.774;8.942;2023-03-29T12:07:28;15.90;83.70
69031;DHT22;56083;48.774;8.942;2023-03-29T12:10:18;15.80;84.20
69031;DHT22;56083;48.774;8.942;2023-03-29T12:17:45;15.70;85.70
69031;DHT22;56083;48.774;8.942;2023-03-29T12:20:26;15.70;85.50
69031;DHT22;56083;48.774;8.942;2023-03-29T12:22:54;15.50;86.10
69031;DHT22;56083;48.774;8.942;2023-03-29T12:25:43;15.50;86.20
69031;DHT22;56083;48.774;8.942;2023-03-29T12:31:27;15.50;86.10
69031;DHT22;56083;48.774;8.942;2023-03-29T12:39:27;15.70;87.90
69031;DHT22;56083;48.774;8.942;2023-03-29T12:42:14;15.70;89.50
69031;DHT22;56083;48.774;8.942;2023-03-29T12:44:56;15.80;88.30
69031;DHT22;56083;48.774;8.942;2023-03-29T12:47:26;15.80;88.40
69031;DHT22;56083;48.774;8.942;2023-03-29T12:49:57;15.80;89.90
69031;DHT22;56083;48.774;8.942;2023-03-29T12:52:30;15.70;90.10
69031;DHT22;56083;48.774;8.942;2023-03-29T12:54:59;15.70;90.50
69031;DHT22;56083;48.774;8.942;2023-03-29T12:57:41;15.60;90.50
69031;DHT22;56083;48.774;8.942;2023-03-29T13:00:32;15.60;91.40
69031;DHT22;56083;48.774;8.942;2023-03-29T13:03:28;15.50;91.60
69031;DHT22;56083;48.774;8.942;2023-03-29T13:06:00;15.20;92.60
69031;DHT22;56083;48.774;8.942;2023-03-29T13:08:39;14.90;93.40
69031;DHT22;56083;48.774;8.942;2023-03-29T13:11:11;14.80;94.00
69031;DHT22;56083;48.774;8.942;2023-03-29T13:13:39;14.70;96.60
69031;DHT22;56083;48.774;8.942;2023-03-29T13:16:16;14.40;99.20
69031;DHT22;56083;48.774;8.942;2023-03-29T13:19:09;14.10;99.90
69031;DHT22;56083;48.774;8.942;2023-03-29T13:27:37;14.20;99.90
69031;DHT22;56083;48.774;8.942;2023-03-29T13:35:29;14.30;99.90
69031;DHT22;56083;48.774;8.942;2023-03-29T13:38:21;14.30;99.90
69031;DHT22;56083;48.774;8.942;2023-03-29T13:40:59;14.30;99.90
69031;DHT22;56083;48.774;8.942;2023-03-29T13:43:51;14.40;99.90
69031;DHT22;56083;48.774;8.942;2023-03-29T13:46:38;14.30;99.90
69031;DHT22;56083;48.774;8.942;2023-03-29T13:49:23;14.20;99.90
69031;DHT22;56083;48.774;8.942;2023-03-29T13:54:28;14.10;99.90
69031;DHT22;56083;48.774;8.942;2023-03-29T13:57:14;14.20;99.90
69031;DHT22;56083;48.774;8.942;2023-03-29T14:02:21;14.50;99.90
69031;DHT22;56083;48.774;8.942;2023-03-29T14:04:49;14.60;99.90
69031;DHT22;56083;48.774;8.942;2023-03-29T14:07:19;14.80;99.90
69031;DHT22;56083;48.774;8.942;2023-03-29T14:09:48;14.90;99.90
69031;DHT22;56083;48.774;8.942;2023-03-29T14:12:15;15.00;99.90
69031;DHT22;56083;48.774;8.942;2023-03-29T14:14:43;15.20;99.90
69031;DHT22;56083;48.774;8.942;2023-03-29T14:17:19;15.30;99.90
69031;DHT22;56083;48.774;8.942;2023-03-29T14:19:46;15.60;99.90
69031;DHT22;56083;48.774;8.942;2023-03-29T14:22:15;15.90;99.90
69031;DHT22;56083;48.774;8.942;2023-03-29T14:24:46;16.70;99.90
69031;DHT22;56083;48.774;8.942;2023-03-29T14:27:14;16.90;99.90
69031;DHT22;56083;48.774;8.942;2023-03-29T14:29:40;17.20;99.90
69031;DHT22;56083;48.774;8.942;2023-03-29T14:32:16;17.50;99.90
69031;DHT22;56083;48.774;8.942;2023-03-29T14:34:43;17.80;99.90
69031;DHT22;56083;48.774;8.942;2023-03-29T14:37:15;18.10;99.90
69031;DHT22;56083;48.774;8.942;2023-03-29T14:39:41;18.30;99.90
69031;DHT22;56083;48.774;8.942;2023-03-29T14:42:27;18.40;99.90
69031;DHT22;56083;48.774;8.942;2023-03-29T14:45:00;18.40;99.90
69031;DHT22;56083;48.774;8.942;2023-03-29T14:47:29;18.30;99.90
69031;DHT22;56083;48.774;8.942;2023-03-29T14:49:56;18.10;99.90
69031;DHT22;56083;48.774;8.942;2023-03-29T14:52:28;17.80;99.90
69031;DHT22;56083;48.774;8.942;2023-03-29T14:54:57;17.80;99.90
69031;DHT22;56083;48.774;8.942;2023-03-29T14:57:25;17.50;99.90
69031;DHT22;56083;48.774;8.942;2023-03-29T15:00:15;17.20;99.90
69031;DHT22;56083;48.774;8.942;2023-03-29T15:02:57;16.90;99.90
69031;DHT22;56083;48.774;8.942;2023-03-29T15:08:01;16.60;99.90
69031;DHT22;56083;48.774;8.942;2023-03-29T15:10:30;16.60;99.90
69031;DHT22;56083;48.774;8.942;2023-03-29T15:12:57;16.70;99.90
69031;DHT22;56083;48.774;8.942;2023-03-29T15:15:25;17.20;99.90
69031;DHT22;56083;48.774;8.942;2023-03-29T15:17:51;17.50;99.90
69031;DHT22;56083;48.774;8.942;2023-03-29T15:20:24;17.90;99.90
69031;DHT22;56083;48.774;8.942;2023-03-29T15:23:00;18.40;99.80
69031;DHT22;56083;48.774;8.942;2023-03-29T15:25:32;18.70;97.60
69031;DHT22;56083;48.774;8.942;2023-03-29T15:27:58;18.60;96.60
69031;DHT22;56083;48.774;8.942;2023-03-29T15:30:42;18.50;97.50
69031;DHT22;56083;48.774;8.942;2023-03-29T15:33:19;18.50;97.50
69031;DHT22;56083;48.774;8.942;2023-03-29T15:35:51;18.70;96.50
69031;DHT22;56083;48.774;8.942;2023-03-29T15:38:18;19.50;96.00
69031;DHT22;56083;48.774;8.942;2023-03-29T15:40:45;20.00;94.40
69031;DHT22;56083;48.774;8.942;2023-03-29T15:43:11;20.00;94.10
69031;DHT22;56083;48.774;8.942;2023-03-29T15:45:36;19.80;95.00
69031;DHT22;56083;48.774;8.942;2023-03-29T15:48:11;19.50;95.90
69031;DHT22;56083;48.774;8.942;2023-03-29T15:50:38;18.80;97.50
69031;DHT22;56083;48.774;8.942;2023-03-29T15:53:04;18.40;99.40
69031;DHT22;56083;48.774;8.942;2023-03-29T15:55:30;17.90;99.90
69031;DHT22;56083;48.774;8.942;2023-03-29T15:57:56;17.40;99.90
69031;DHT22;56083;48.774;8.942;2023-03-29T16:00:23;17.00;99.90
69031;DHT22;56083;48.774;8.942;2023-03-29T16:02:49;16.70;99.90
69031;DHT22;56083;48.774;8.942;2023-03-29T16:05:16;16.60;99.90
69031;DHT22;56083;48.774;8.942;2023-03-29T16:07:41;16.50;99.90
69031;DHT22;56083;48.774;8.942;2023-03-29T16:10:07;16.40;99.90
69031;DHT22;56083;48.774;8.942;2023-03-29T16:12:34;16.40;99.90
69031;DHT22;56083;48.774;8.942;2023-03-29T16:15:09;16.30;99.90
69031;DHT22;56083;48.774;8.942;2023-03-29T16:17:36;16.20;99.90
69031;DHT22;56083;48.774;8.942;2023-03-29T16:20:02;16.20;99.90
69031;DHT22;56083;48.774;8.942;2023-03-29T16:22:29;16.20;99.90
69031;DHT22;56083;48.774;8.942;2023-03-29T16:24:55;16.20;99.90
69031;DHT22;56083;48.774;8.942;2023-03-29T16:27:20;16.30;99.90
69031;DHT22;56083;48.774;8.942;2023-03-29T16:29:46;16.40;99.90
69031;DHT22;56083;48.774;8.942;2023-03-29T16:32:12;16.40;99.90
69031;DHT22;56083;48.774;8.942;2023-03-29T16:34:37;16.40;99.90
69031;DHT22;56083;48.774;8.942;2023-03-29T16:37:05;16.40;99.90
69031;DHT22;56083;48.774;8.942;2023-03-29T16:39:30;16.30;99.90
69031;DHT22;56083;48.774;8.942;2023-03-29T16:41:56;16.30;99.90
69031;DHT22;56083;48.774;8.942;2023-03-29T16:44:22;16.30;99.90
69031;DHT22;56083;48.774;8.942;2023-03-29T16:46:50;16.20;99.90
69031;DHT22;56083;48.774;8.942;2023-03-29T16:49:18;16.20;99.80
69031;DHT22;56083;48.774;8.942;2023-03-29T16:51:46;16.10;99.90
69031;DHT22;56083;48.774;8.942;2023-03-29T16:54:13;16.10;99.90
69031;DHT22;56083;48.774;8.942;2023-03-29T16:56:39;16.00;99.80
69031;DHT22;56083;48.774;8.942;2023-03-29T16:59:04;15.90;99.60
69031;DHT22;56083;48.774;8.942;2023-03-29T17:01:30;15.90;99.30
69031;DHT22;56083;48.774;8.942;2023-03-29T17:03:56;15.80;99.70
69031;DHT22;56083;48.774;8.942;2023-03-29T17:06:22;15.70;99.90
69031;DHT22;56083;48.774;8.942;2023-03-29T17:08:48;15.50;99.90
69031;DHT22;56083;48.774;8.942;2023-03-29T17:11:14;15.40;99.90
69031;DHT22;56083;48.774;8.942;2023-03-29T17:13:40;15.20;99.90
69031;DHT22;56083;48.774;8.942;2023-03-29T17:16:06;15.10;99.90
69031;DHT22;56083;48.774;8.942;2023-03-29T17:18:32;15.10;99.90
69031;DHT22;56083;48.774;8.942;2023-03-29T17:20:58;15.10;99.90
69031;DHT22;56083;48.774;8.942;2023-03-29T17:23:24;15.00;99.90
69031;DHT22;56083;48.774;8.942;2023-03-29T17:25:52;14.90;99.90